NEWFOUND LAKE DAM: From 06/27/2020 16:00 to 07/11/2020 21:00

Date STAGE [FT] FLOW [CFS] LAKE ELEVATION [FT] PRECIPITATION INCREMENT [IN] AIR TEMPERATURE [DEGF]
07/11/2020 16:00 -- -- -- 0.00 --
07/11/2020 15:00 4.32 -- 587.29 0.00 83.4
07/11/2020 14:00 4.32 -- 587.28 0.00 80.4
07/11/2020 13:00 4.32 20.1 587.29 0.00 76.7
07/11/2020 12:00 4.32 20.1 587.27 0.01 72.2
07/11/2020 11:00 4.32 20.1 587.26 0.04 71.4
07/11/2020 10:00 4.31 19.2 587.27 0.08 71.3
07/11/2020 09:00 4.31 19.2 587.27 0.02 71.6
07/11/2020 08:00 4.32 20.1 587.29 0.01 71.1
07/11/2020 07:00 4.32 20.1 587.25 0.01 71.1
07/11/2020 06:00 4.32 20.1 587.29 0.00 71.2
07/11/2020 05:00 4.32 20.1 587.31 0.00 71.0
07/11/2020 04:00 4.32 20.1 587.28 0.02 70.8
07/11/2020 03:00 4.32 20.1 587.31 0.01 70.8
07/11/2020 02:00 4.32 20.1 587.31 0.02 71.6
07/11/2020 01:00 4.33 21.0 587.31 0.00 72.6
07/11/2020 00:00 4.33 21.0 587.31 0.00 73.2
07/10/2020 23:00 4.32 20.1 587.26 0.00 74.0
07/10/2020 22:00 4.32 20.1 587.27 0.00 74.9
07/10/2020 21:00 4.32 20.1 587.29 0.00 75.8
07/10/2020 20:00 4.32 20.1 587.28 0.00 77.3
07/10/2020 19:00 4.32 20.1 587.28 0.00 79.9
07/10/2020 18:00 4.32 20.1 587.27 0.00 81.5
07/10/2020 17:00 4.32 20.1 587.28 0.00 83.2
07/10/2020 16:00 4.32 20.1 587.29 0.00 85.4
07/10/2020 15:00 4.33 21.0 587.30 0.00 85.3
07/10/2020 14:00 4.33 21.0 587.30 0.00 84.5
07/10/2020 13:00 4.34 21.8 587.30 0.00 83.3
07/10/2020 12:00 4.34 21.8 587.32 0.00 81.4
07/10/2020 11:00 4.33 21.0 587.31 0.00 78.8
07/10/2020 10:00 4.34 21.8 587.31 0.00 76.8
07/10/2020 09:00 4.33 21.0 587.31 0.00 74.6
07/10/2020 08:00 4.33 21.0 587.30 0.00 73.0
07/10/2020 07:00 4.33 21.0 587.30 0.00 72.0
07/10/2020 06:00 4.33 21.0 587.31 0.00 71.5
07/10/2020 05:00 4.33 21.0 587.31 0.00 71.3
07/10/2020 04:00 4.34 21.8 587.32 0.00 71.2
07/10/2020 03:00 4.33 21.0 587.32 0.00 71.6
07/10/2020 02:00 4.33 21.0 587.31 0.00 72.4
07/10/2020 01:00 4.34 21.8 587.32 0.00 73.3
07/10/2020 00:00 4.34 21.8 587.33 0.00 73.9
07/09/2020 23:00 4.34 21.8 587.32 0.00 74.7
07/09/2020 22:00 4.34 21.8 587.32 0.00 75.6
07/09/2020 21:00 4.33 21.0 587.30 0.00 77.4
07/09/2020 20:00 4.34 21.8 587.31 0.00 80.6
07/09/2020 19:00 4.34 21.8 587.31 0.00 86.0
07/09/2020 18:00 4.33 21.0 587.30 0.00 87.9
07/09/2020 17:00 4.34 21.8 587.31 0.00 87.1
07/09/2020 16:00 4.34 21.8 587.32 0.00 87.7
07/09/2020 15:00 4.34 21.8 587.33 0.00 87.2
07/09/2020 14:00 4.34 21.8 587.32 0.00 86.2
07/09/2020 13:00 4.35 22.7 587.34 0.00 84.1
07/09/2020 12:00 4.34 21.8 587.33 0.00 81.1
07/09/2020 11:00 4.34 21.8 587.31 0.00 74.8
07/09/2020 10:00 4.34 21.8 587.32 0.00 69.7
07/09/2020 09:00 4.34 21.8 587.31 0.00 67.3
07/09/2020 08:00 4.34 21.8 587.31 0.00 66.9
07/09/2020 07:00 4.34 21.8 587.31 0.00 66.3
07/09/2020 06:00 4.35 22.7 587.32 0.00 66.2
07/09/2020 05:00 4.34 21.8 587.32 0.01 66.3
07/09/2020 04:00 4.34 21.8 587.31 0.00 66.5
07/09/2020 03:00 4.35 22.7 587.33 0.00 66.2
07/09/2020 02:00 4.36 23.7 587.35 0.00 66.8
07/09/2020 01:00 4.34 21.8 587.30 0.00 66.6
07/09/2020 00:00 4.36 23.7 587.35 0.00 67.0
07/08/2020 23:00 4.36 23.7 587.39 0.00 68.0
07/08/2020 22:00 4.32 20.1 587.27 0.00 69.4
07/08/2020 21:00 4.36 23.7 587.34 0.00 72.3
07/08/2020 20:00 4.33 21.0 587.28 0.00 74.6
07/08/2020 19:00 4.36 23.7 587.32 0.01 76.1
07/08/2020 18:00 4.35 22.7 587.30 0.00 72.5
07/08/2020 17:00 4.33 21.0 587.29 0.52 72.4
07/08/2020 16:00 4.33 21.0 587.30 0.00 76.9
07/08/2020 15:00 4.35 22.7 587.35 0.05 78.3
07/08/2020 14:00 4.33 21.0 587.30 0.00 81.0
07/08/2020 13:00 4.33 21.0 587.29 0.00 78.4
07/08/2020 12:00 4.33 21.0 587.29 0.00 76.8
07/08/2020 11:00 4.33 21.0 587.28 0.00 74.5
07/08/2020 10:00 4.33 21.0 587.27 0.00 71.7
07/08/2020 09:00 4.32 20.1 587.27 0.00 69.3
07/08/2020 08:00 4.32 20.1 587.27 0.00 68.4
07/08/2020 07:00 4.32 20.1 587.28 0.00 67.6
07/08/2020 06:00 4.32 20.1 587.28 0.00 67.5
07/08/2020 05:00 4.33 21.0 587.30 0.00 68.5
07/08/2020 04:00 4.33 21.0 587.28 0.00 69.2
07/08/2020 03:00 4.33 21.0 587.29 0.00 69.8
07/08/2020 02:00 4.33 21.0 587.30 0.00 69.6
07/08/2020 01:00 4.33 21.0 587.28 0.00 70.1
07/08/2020 00:00 4.33 21.0 587.29 0.00 69.9
07/07/2020 23:00 4.33 21.0 587.28 0.00 69.3
07/07/2020 22:00 4.33 21.0 587.28 0.00 71.9
07/07/2020 21:00 4.33 21.0 587.29 0.00 75.8
07/07/2020 20:00 4.33 21.0 587.28 0.00 77.4
07/07/2020 19:00 4.33 21.0 587.28 0.00 79.6
07/07/2020 18:00 4.33 21.0 587.30 0.00 81.8
07/07/2020 17:00 4.33 21.0 587.29 0.00 81.4
07/07/2020 16:00 4.33 21.0 587.29 0.00 79.5
07/07/2020 15:00 4.33 21.0 587.31 0.00 79.8
07/07/2020 14:00 4.34 21.8 587.31 0.00 78.8
07/07/2020 13:00 4.33 21.0 587.29 0.00 76.2
07/07/2020 12:00 4.34 21.8 587.29 0.00 73.8
07/07/2020 11:00 4.34 21.8 587.30 0.00 72.1
07/07/2020 10:00 4.34 21.8 587.31 0.00 67.6
07/07/2020 09:00 4.34 21.8 587.30 0.00 63.4
07/07/2020 08:00 4.34 21.8 587.32 0.00 60.8
07/07/2020 07:00 4.34 21.8 587.32 0.00 59.7
07/07/2020 06:00 4.34 21.8 587.31 0.00 59.8
07/07/2020 05:00 4.35 22.7 587.33 0.00 58.6
07/07/2020 04:00 4.34 21.8 587.32 0.00 58.7
07/07/2020 03:00 4.34 21.8 587.32 0.00 59.0
07/07/2020 02:00 4.35 22.7 587.33 0.00 60.0
07/07/2020 01:00 4.34 21.8 587.31 0.00 61.9
07/07/2020 00:00 4.34 21.8 587.31 0.00 64.2
07/06/2020 23:00 4.34 21.8 587.31 0.00 66.5
07/06/2020 22:00 4.35 22.7 587.31 0.00 69.5
07/06/2020 21:00 4.35 22.7 587.33 0.00 72.5
07/06/2020 20:00 4.35 22.7 587.32 0.00 74.7
07/06/2020 19:00 4.35 22.7 587.31 0.00 81.6
07/06/2020 18:00 4.35 22.7 587.33 0.00 81.9
07/06/2020 17:00 4.35 22.7 587.33 0.00 82.1
07/06/2020 16:00 4.35 22.7 587.33 0.00 78.3
07/06/2020 15:00 4.35 22.7 587.33 0.00 81.6
07/06/2020 14:00 4.35 22.7 587.33 0.00 80.1
07/06/2020 13:00 4.35 22.7 587.34 0.00 78.4
07/06/2020 12:00 4.35 22.7 587.33 0.00 76.1
07/06/2020 11:00 4.35 22.7 587.33 0.00 71.3
07/06/2020 10:00 4.35 22.7 587.33 0.00 70.8
07/06/2020 09:00 4.35 22.7 587.33 0.00 66.4
07/06/2020 08:00 4.36 23.7 587.34 0.00 64.9
07/06/2020 07:00 4.36 23.7 587.35 0.00 63.5
07/06/2020 06:00 4.35 22.7 587.34 0.00 63.5
07/06/2020 05:00 4.36 23.7 587.35 0.00 63.4
07/06/2020 04:00 4.36 23.7 587.35 0.00 64.5
07/06/2020 03:00 4.35 22.7 587.34 0.01 65.6
07/06/2020 02:00 4.35 22.7 587.33 0.00 65.4
07/06/2020 01:00 4.36 23.7 587.36 0.00 65.6
07/06/2020 00:00 4.35 22.7 587.36 0.00 66.2
07/05/2020 23:00 4.35 22.7 587.34 0.00 65.3
07/05/2020 22:00 4.37 24.6 587.36 0.09 67.2
07/05/2020 21:00 4.36 23.7 587.35 0.00 73.3
07/05/2020 20:00 4.36 23.7 587.36 0.00 76.7
07/05/2020 19:00 4.36 23.7 587.36 0.00 79.5
07/05/2020 18:00 4.36 23.7 587.36 0.00 83.4
07/05/2020 17:00 4.36 23.7 587.35 0.00 83.1
07/05/2020 16:00 4.37 24.6 587.37 0.00 82.8
07/05/2020 15:00 4.36 23.7 587.34 0.00 82.5
07/05/2020 14:00 4.35 22.7 587.32 0.00 81.6
07/05/2020 13:00 4.36 23.7 587.33 0.00 81.4
07/05/2020 12:00 4.35 22.7 587.34 0.00 80.3
07/05/2020 11:00 4.36 23.7 587.34 0.00 75.9
07/05/2020 10:00 4.36 23.7 587.35 0.00 71.7
07/05/2020 09:00 4.35 22.7 587.34 0.00 63.9
07/05/2020 08:00 4.36 23.7 587.35 0.00 62.5
07/05/2020 07:00 4.36 23.7 587.35 0.00 60.5
07/05/2020 06:00 4.35 22.7 587.35 0.00 60.2
07/05/2020 05:00 4.36 23.7 587.34 0.00 60.4
07/05/2020 04:00 4.37 24.6 587.36 0.00 59.9
07/05/2020 03:00 4.35 22.7 587.36 0.00 60.1
07/05/2020 02:00 4.35 22.7 587.34 0.00 60.6
07/05/2020 01:00 4.35 22.7 587.34 0.00 61.2
07/05/2020 00:00 4.35 22.7 587.34 0.00 62.9
07/04/2020 23:00 4.35 22.7 587.35 0.00 65.4
07/04/2020 22:00 4.36 23.7 587.35 0.00 68.5
07/04/2020 21:00 4.37 24.6 587.36 0.00 71.3
07/04/2020 20:00 4.37 24.6 587.36 0.00 75.5
07/04/2020 19:00 4.37 24.6 587.37 0.00 83.0
07/04/2020 18:00 4.37 24.6 587.35 0.00 84.2
07/04/2020 17:00 4.37 24.6 587.38 0.00 84.4
07/04/2020 16:00 4.37 24.6 587.35 0.00 83.6
07/04/2020 15:00 4.36 23.7 587.35 0.00 83.5
07/04/2020 14:00 4.36 23.7 587.34 0.00 82.1
07/04/2020 13:00 4.36 23.7 587.33 0.00 77.0
07/04/2020 12:00 4.36 23.7 587.36 0.00 74.1
07/04/2020 11:00 4.36 23.7 587.35 0.00 71.8
07/04/2020 10:00 4.36 23.7 587.36 0.00 67.2
07/04/2020 09:00 4.35 22.7 587.34 0.00 64.9
07/04/2020 08:00 4.36 23.7 587.35 0.00 63.5
07/04/2020 07:00 4.36 23.7 587.37 0.00 62.3
07/04/2020 06:00 4.35 22.7 587.36 0.00 62.1
07/04/2020 05:00 4.35 22.7 587.33 0.00 61.3
07/04/2020 04:00 4.36 23.7 587.36 0.00 61.4
07/04/2020 03:00 4.35 22.7 587.34 0.00 62.3
07/04/2020 02:00 4.34 21.8 587.33 0.00 62.6
07/04/2020 01:00 4.36 23.7 587.35 0.01 62.6
07/04/2020 00:00 4.35 22.7 587.34 0.03 62.9
07/03/2020 23:00 4.35 22.7 587.35 0.08 63.6
07/03/2020 22:00 4.34 21.8 587.34 0.00 66.5
07/03/2020 21:00 4.34 21.8 587.33 0.00 68.4
07/03/2020 20:00 4.34 21.8 587.31 0.00 69.8
07/03/2020 19:00 4.35 22.7 587.34 0.00 70.5
07/03/2020 18:00 4.34 21.8 587.32 0.00 70.9
07/03/2020 17:00 4.34 21.8 587.31 0.00 70.8
07/03/2020 16:00 4.34 21.8 587.34 0.00 71.6
07/03/2020 15:00 4.33 21.0 587.32 0.00 71.2
07/03/2020 14:00 4.33 21.0 587.30 0.00 71.8
07/03/2020 13:00 4.34 21.8 587.31 0.00 73.3
07/03/2020 12:00 4.34 21.8 587.33 0.00 73.2
07/03/2020 11:00 4.35 22.7 587.33 0.00 74.3
07/03/2020 10:00 4.35 22.7 587.34 0.00 73.4
07/03/2020 09:00 4.36 23.7 587.35 0.00 71.1
07/03/2020 08:00 4.36 23.7 587.36 0.00 70.6
07/03/2020 07:00 4.35 22.7 587.35 0.00 68.1
07/03/2020 06:00 4.35 22.7 587.34 0.00 68.6
07/03/2020 05:00 4.35 22.7 587.35 0.00 69.1
07/03/2020 04:00 4.34 21.8 587.34 0.01 69.4
07/03/2020 03:00 4.34 21.8 587.33 0.00 69.4
07/03/2020 02:00 4.35 22.7 587.33 0.00 70.1
07/03/2020 01:00 4.34 21.8 587.34 0.00 70.2
07/03/2020 00:00 4.34 21.8 587.34 0.00 70.3
07/02/2020 23:00 4.36 23.7 587.34 0.00 70.7
07/02/2020 22:00 4.36 23.7 587.39 0.00 71.2
07/02/2020 21:00 4.34 21.8 587.35 0.00 71.5
07/02/2020 20:00 4.39 26.5 587.33 0.00 71.7
07/02/2020 19:00 4.39 26.5 587.44 0.03 71.3
07/02/2020 18:00 4.35 22.7 587.34 0.00 89.6
07/02/2020 17:00 4.35 22.7 587.34 0.00 88.8
07/02/2020 16:00 4.34 21.8 587.33 0.00 87.6
07/02/2020 15:00 4.34 21.8 587.33 0.00 85.3
07/02/2020 14:00 4.34 21.8 587.31 0.00 84.3
07/02/2020 13:00 4.33 21.0 587.32 0.00 82.8
07/02/2020 12:00 4.33 21.0 587.31 0.00 79.3
07/02/2020 11:00 4.33 21.0 587.32 0.00 74.0
07/02/2020 10:00 4.33 21.0 587.32 0.00 74.0
07/02/2020 09:00 4.33 21.0 587.31 0.00 66.1
07/02/2020 08:00 4.34 21.8 587.33 0.00 64.3
07/02/2020 07:00 4.33 21.0 587.33 0.00 63.6
07/02/2020 06:00 4.32 20.1 587.30 0.00 63.6
07/02/2020 05:00 4.33 21.0 587.32 0.00 64.3
07/02/2020 04:00 4.33 21.0 587.33 0.00 64.7
07/02/2020 03:00 4.32 20.1 587.31 0.00 64.9
07/02/2020 02:00 4.32 20.1 587.30 0.00 65.4
07/02/2020 01:00 4.33 21.0 587.31 0.00 65.3
07/02/2020 00:00 4.32 20.1 587.32 0.00 65.8
07/01/2020 23:00 4.32 20.1 587.29 0.00 66.5
07/01/2020 22:00 4.33 21.0 587.31 0.00 67.8
07/01/2020 21:00 4.32 20.1 587.32 0.00 69.2
07/01/2020 20:00 4.31 19.2 587.28 0.00 69.9
07/01/2020 19:00 4.32 20.1 587.29 0.00 74.3
07/01/2020 18:00 4.32 20.1 587.31 0.00 72.8
07/01/2020 17:00 4.30 18.4 587.27 0.03 66.3
07/01/2020 16:00 4.32 20.1 587.29 0.24 64.4
07/01/2020 15:00 4.30 18.4 587.26 0.00 74.4
07/01/2020 14:00 4.29 17.6 587.24 0.00 74.8
07/01/2020 13:00 4.30 18.4 587.24 0.00 75.0
07/01/2020 12:00 4.30 18.4 587.25 0.00 73.2
07/01/2020 11:00 4.30 18.4 587.26 0.00 71.8
07/01/2020 10:00 4.29 17.6 587.25 0.00 68.6
07/01/2020 09:00 4.29 17.6 587.21 0.01 66.1
07/01/2020 08:00 4.30 18.4 587.24 0.00 64.6
07/01/2020 07:00 4.29 17.6 587.22 0.00 63.3
07/01/2020 06:00 4.29 17.6 587.20 0.00 63.3
07/01/2020 05:00 4.29 17.6 587.21 0.00 63.6
07/01/2020 04:00 4.29 17.6 587.20 0.22 64.1
07/01/2020 03:00 4.29 17.6 587.16 0.26 64.0
07/01/2020 02:00 4.28 16.8 587.16 0.09 64.1
07/01/2020 01:00 4.28 16.8 587.13 0.04 64.4
07/01/2020 00:00 4.28 16.8 587.11 0.00 64.2
06/30/2020 23:00 4.28 16.8 587.10 0.00 64.7
06/30/2020 22:00 4.28 16.8 587.12 0.00 65.4
06/30/2020 21:00 4.28 16.8 587.12 0.00 66.8
06/30/2020 20:00 4.28 16.8 587.11 0.00 67.2
06/30/2020 19:00 4.28 16.8 587.10 0.01 66.7
06/30/2020 18:00 4.28 16.8 587.11 0.01 67.4
06/30/2020 17:00 4.28 16.8 587.11 0.00 70.8
06/30/2020 16:00 4.28 16.8 587.06 0.00 69.6
06/30/2020 15:00 4.29 17.6 587.09 0.03 69.7
06/30/2020 14:00 4.29 17.6 587.10 0.01 70.5
06/30/2020 13:00 4.28 16.8 587.10 0.03 67.3
06/30/2020 12:00 4.23 13.0 587.09 0.02 68.4
06/30/2020 11:00 4.22 12.3 587.10 0.02 64.9
06/30/2020 10:00 4.22 12.3 587.10 0.03 65.8
06/30/2020 09:00 4.22 12.3 587.09 0.00 63.8
06/30/2020 08:00 4.22 12.3 587.09 0.01 63.5
06/30/2020 07:00 4.22 12.3 587.09 0.00 63.2
06/30/2020 06:00 4.22 12.3 587.09 0.01 63.3
06/30/2020 05:00 4.22 12.3 587.09 0.00 62.9
06/30/2020 04:00 4.22 12.3 587.09 0.00 63.2
06/30/2020 03:00 4.22 12.3 587.10 0.00 62.7
06/30/2020 02:00 4.22 12.3 587.08 0.00 63.0
06/30/2020 01:00 4.22 12.3 587.09 0.01 63.0
06/30/2020 00:00 4.22 12.3 587.10 0.02 63.2
06/29/2020 23:00 4.22 12.3 587.08 0.05 63.2
06/29/2020 22:00 4.22 12.3 587.11 0.11 64.1
06/29/2020 21:00 4.22 12.3 587.08 0.00 65.3
06/29/2020 20:00 4.22 12.3 587.07 0.00 65.7
06/29/2020 19:00 4.22 12.3 587.07 0.00 65.3
06/29/2020 18:00 4.23 13.0 587.10 0.00 67.1
06/29/2020 17:00 4.23 13.0 587.08 0.00 68.0
06/29/2020 16:00 4.23 13.0 587.06 0.00 66.9
06/29/2020 15:00 4.23 13.0 587.07 0.00 70.0
06/29/2020 14:00 4.23 13.0 587.09 0.00 69.7
06/29/2020 13:00 4.23 13.0 587.07 0.01 68.3
06/29/2020 12:00 4.23 13.0 587.08 0.01 67.7
06/29/2020 11:00 4.23 13.0 587.07 0.00 69.6
06/29/2020 10:00 4.23 13.0 587.07 0.00 67.7
06/29/2020 09:00 4.23 13.0 587.07 0.00 66.4
06/29/2020 08:00 4.23 13.0 587.07 0.01 65.1
06/29/2020 07:00 4.23 13.0 587.08 0.00 64.4
06/29/2020 06:00 4.23 13.0 587.07 0.00 64.6
06/29/2020 05:00 4.23 13.0 587.06 0.03 64.8
06/29/2020 04:00 4.23 13.0 587.06 0.06 64.8
06/29/2020 03:00 4.23 13.0 587.07 0.00 64.7
06/29/2020 02:00 4.23 13.0 587.06 0.01 65.0
06/29/2020 01:00 4.23 13.0 587.07 0.01 65.4
06/29/2020 00:00 4.23 13.0 587.06 0.00 65.4
06/28/2020 23:00 4.23 13.0 587.05 0.01 65.3
06/28/2020 22:00 4.23 13.0 587.07 0.59 66.2
06/28/2020 21:00 4.24 13.8 587.09 0.00 71.3
06/28/2020 20:00 4.23 13.0 587.08 0.00 74.4
06/28/2020 19:00 4.24 13.8 587.06 0.00 76.0
06/28/2020 18:00 4.24 13.8 587.07 0.00 74.4
06/28/2020 17:00 4.24 13.8 587.10 0.00 75.5
06/28/2020 16:00 4.23 13.0 587.06 0.00 76.3
06/28/2020 15:00 4.24 13.8 587.06 0.00 79.1
06/28/2020 14:00 4.23 13.0 587.07 0.00 79.0
06/28/2020 13:00 4.23 13.0 587.06 0.00 77.2
06/28/2020 12:00 4.23 13.0 587.07 0.00 75.0
06/28/2020 11:00 4.23 13.0 587.06 0.00 73.5
06/28/2020 10:00 4.23 13.0 587.07 0.00 70.8
06/28/2020 09:00 4.23 13.0 587.06 0.00 66.7
06/28/2020 08:00 4.23 13.0 587.07 0.00 61.3
06/28/2020 07:00 4.23 13.0 587.07 0.00 59.0
06/28/2020 06:00 4.23 13.0 587.07 0.00 58.6
06/28/2020 05:00 4.23 13.0 587.08 0.00 58.9
06/28/2020 04:00 4.23 13.0 587.06 0.00 59.8
06/28/2020 03:00 4.23 13.0 587.09 0.00 61.2
06/28/2020 02:00 4.23 13.0 587.08 0.00 61.9
06/28/2020 01:00 4.23 13.0 587.07 0.00 63.5
06/28/2020 00:00 4.23 13.0 587.08 0.00 66.6
06/27/2020 23:00 4.23 13.0 587.08 0.00 67.7
06/27/2020 22:00 4.24 13.8 587.07 0.00 68.7
06/27/2020 21:00 4.24 13.8 587.09 0.00 70.1
06/27/2020 20:00 4.24 13.8 587.08 0.00 72.6
06/27/2020 19:00 4.24 13.8 587.09 0.00 75.2
06/27/2020 18:00 4.24 13.8 587.10 0.00 79.8
06/27/2020 17:00 4.24 13.8 587.08 0.00 80.0
06/27/2020 16:00 4.24 13.8 587.08 0.00 78.1